Chebanse, IL (60922)

5:13 PM CDT on August 04, 2015 (GMT -0500)
Main Street | | Change Station
CLOSE
Current Station
Personal Weather Station
Location: Clifton, IL
Elevation: 669 ft
Nearby Weather Stations

Elev 669 ft 40.93 °N, 87.93 °W | Updated 7 minutes ago

Partly Cloudy
Partly Cloudy
80.1 °F
Feels Like 81 °F
N
4.7
Wind Variable Wind from NE

Today
High -- | Low -- °F
--% Chance of Precip.
Yesterday
High -- | Low -- °F
Precip. -- in
5:50 AM 8:04 PM
Waning Gibbous, 74% visible
Pressure 29.99 in
Visibility 10.0 miles
Clouds Clear
Heat Index 81 °F
Dew Point 59 °F
Humidity 49%
Rainfall 0.00 in
Snow Depth Not available.
UV 4 out of 12
Pollen 7.70 out of 12
Air Quality Not available.
Flu Activity Not available.
METAR KIKK 042155Z AUTO 29008KT 10SM CLR 26/14 A2999 RMK AO2 T02630135

More Conditions Fewer Conditions

Pressure 29.99 in
Visibility 10.0 miles
Clouds Clear
Heat Index 81 °F
Dew Point 59 °F
Humidity 49%
Rainfall 0.00 in
Snow Depth Not available.
UV 4 out of 12
Pollen 7.70 out of 12
Air Quality Not available.
Flu Activity Not available.
METAR KIKK 042155Z AUTO 29008KT 10SM CLR 26/14 A2999 RMK AO2 T02630135

More Conditions Fewer Conditions

10-Day Weather Forecast

×

Almanac

Astronomy

Aug. 04, 2015 Rise Set
Actual Time
Civil Twilight
Nautical Twilight
Astronomical Twilight
Moon
Length of Visible Light
Length of Day
Tomorrow will be .
, % of the Moon is Illuminated

Today's Extremes

State Highs State Lows

Community

WunderPhotos

Upload Photos

1,844,002 photos uploaded!

WunderBlogs® & News

Nearby

Air Quality

  Air Quality AQ Index Pollutant
Not available.

Snow Depth

Station Depth Elevation

Earthquake Activity

City Distance Mag. Time & Date
Minimum magnitude displayed is 2.5.

Coastal Water Temperatures

Place Temperature

Stations

Nearby Weather Stations

Station Location Temp. Windchill Dew Point Humidity Wind Precip. Elev Updated Type